sensor_id;sensor_type;location;lat;lon;timestamp;pressure;altitude;pressure_sealevel;temperature;humidity
29433;BME280;16405;53.964;13.448;2023-12-07T00:02:11;101276.94;;;-1.76;100.00
29433;BME280;16405;53.964;13.448;2023-12-07T00:04:39;101275.25;;;-1.74;100.00
29433;BME280;16405;53.964;13.448;2023-12-07T00:07:05;101279.53;;;-1.76;100.00
29433;BME280;16405;53.964;13.448;2023-12-07T00:09:32;101285.53;;;-1.77;100.00
29433;BME280;16405;53.964;13.448;2023-12-07T00:11:57;101276.94;;;-1.76;100.00
29433;BME280;16405;53.964;13.448;2023-12-07T00:14:23;101270.03;;;-1.79;100.00
29433;BME280;16405;53.964;13.448;2023-12-07T00:16:51;101276.09;;;-1.75;100.00
29433;BME280;16405;53.964;13.448;2023-12-07T00:19:19;101281.28;;;-1.74;100.00
29433;BME280;16405;53.964;13.448;2023-12-07T00:21:45;101280.38;;;-1.76;100.00
29433;BME280;16405;53.964;13.448;2023-12-07T00:24:11;101277.78;;;-1.79;100.00
29433;BME280;16405;53.964;13.448;2023-12-07T00:26:37;101281.22;;;-1.78;100.00
29433;BME280;16405;53.964;13.448;2023-12-07T00:29:03;101277.81;;;-1.76;100.00
29433;BME280;16405;53.964;13.448;2023-12-07T00:31:38;101281.22;;;-1.78;100.00
29433;BME280;16405;53.964;13.448;2023-12-07T00:34:04;101291.50;;;-1.80;100.00
29433;BME280;16405;53.964;13.448;2023-12-07T00:36:29;101289.75;;;-1.82;100.00
29433;BME280;16405;53.964;13.448;2023-12-07T00:38:55;101290.63;;;-1.82;100.00
29433;BME280;16405;53.964;13.448;2023-12-07T00:41:30;101298.34;;;-1.85;100.00
29433;BME280;16405;53.964;13.448;2023-12-07T00:43:56;101297.47;;;-1.87;100.00
29433;BME280;16405;53.964;13.448;2023-12-07T00:46:22;101296.59;;;-1.88;100.00
29433;BME280;16405;53.964;13.448;2023-12-07T00:48:47;101300.03;;;-1.87;100.00
29433;BME280;16405;53.964;13.448;2023-12-07T00:51:25;101300.88;;;-1.88;100.00
29433;BME280;16405;53.964;13.448;2023-12-07T00:53:51;101301.69;;;-1.91;100.00
29433;BME280;16405;53.964;13.448;2023-12-07T00:56:21;101299.19;;;-1.88;100.00
29433;BME280;16405;53.964;13.448;2023-12-07T00:58:47;101300.06;;;-1.84;100.00
29433;BME280;16405;53.964;13.448;2023-12-07T01:01:13;101307.88;;;-1.81;100.00
29433;BME280;16405;53.964;13.448;2023-12-07T01:03:38;101309.63;;;-1.78;100.00
29433;BME280;16405;53.964;13.448;2023-12-07T01:06:07;101306.16;;;-1.80;100.00
29433;BME280;16405;53.964;13.448;2023-12-07T01:08:38;101309.59;;;-1.80;100.00
29433;BME280;16405;53.964;13.448;2023-12-07T01:11:04;101315.69;;;-1.75;100.00
29433;BME280;16405;53.964;13.448;2023-12-07T01:13:30;101320.88;;;-1.73;100.00
29433;BME280;16405;53.964;13.448;2023-12-07T01:15:58;101320.84;;;-1.76;100.00
29433;BME280;16405;53.964;13.448;2023-12-07T01:18:24;101321.72;;;-1.74;100.00
29433;BME280;16405;53.964;13.448;2023-12-07T01:20:55;101327.78;;;-1.71;100.00
29433;BME280;16405;53.964;13.448;2023-12-07T01:23:21;101332.97;;;-1.69;100.00
29433;BME280;16405;53.964;13.448;2023-12-07T01:25:47;101321.81;;;-1.67;100.00
29433;BME280;16405;53.964;13.448;2023-12-07T01:28:13;101327.84;;;-1.65;100.00
29433;BME280;16405;53.964;13.448;2023-12-07T01:30:48;101327.06;;;-1.62;100.00
29433;BME280;16405;53.964;13.448;2023-12-07T01:33:14;101323.63;;;-1.61;100.00
29433;BME280;16405;53.964;13.448;2023-12-07T01:35:40;101322.78;;;-1.58;100.00
29433;BME280;16405;53.964;13.448;2023-12-07T01:38:14;101322.81;;;-1.57;100.00
29433;BME280;16405;53.964;13.448;2023-12-07T01:40:40;101334.84;;;-1.56;100.00
29433;BME280;16405;53.964;13.448;2023-12-07T01:43:05;101334.00;;;-1.56;100.00
29433;BME280;16405;53.964;13.448;2023-12-07T01:45:31;101337.44;;;-1.57;100.00
29433;BME280;16405;53.964;13.448;2023-12-07T01:47:57;101339.09;;;-1.61;100.00
29433;BME280;16405;53.964;13.448;2023-12-07T01:50:25;101333.91;;;-1.64;100.00
29433;BME280;16405;53.964;13.448;2023-12-07T01:53:02;101328.75;;;-1.64;100.00
29433;BME280;16405;53.964;13.448;2023-12-07T01:55:33;101339.06;;;-1.66;100.00
29433;BME280;16405;53.964;13.448;2023-12-07T01:58:02;101339.09;;;-1.64;100.00
29433;BME280;16405;53.964;13.448;2023-12-07T02:00:28;101345.13;;;-1.62;100.00
29433;BME280;16405;53.964;13.448;2023-12-07T02:02:54;101352.91;;;-1.59;100.00
29433;BME280;16405;53.964;13.448;2023-12-07T02:05:32;101352.94;;;-1.56;100.00
29433;BME280;16405;53.964;13.448;2023-12-07T02:07:58;101352.97;;;-1.54;100.00
29433;BME280;16405;53.964;13.448;2023-12-07T02:10:27;101346.94;;;-1.55;100.00
29433;BME280;16405;53.964;13.448;2023-12-07T02:12:55;101351.25;;;-1.54;100.00
29433;BME280;16405;53.964;13.448;2023-12-07T02:15:21;101343.53;;;-1.52;100.00
29433;BME280;16405;53.964;13.448;2023-12-07T02:20:43;101356.41;;;-1.54;100.00
29433;BME280;16405;53.964;13.448;2023-12-07T02:23:20;101358.13;;;-1.54;100.00
29433;BME280;16405;53.964;13.448;2023-12-07T02:25:52;101357.31;;;-1.53;100.00
29433;BME280;16405;53.964;13.448;2023-12-07T02:28:26;101354.72;;;-1.52;100.00
29433;BME280;16405;53.964;13.448;2023-12-07T02:30:51;101364.19;;;-1.52;100.00
29433;BME280;16405;53.964;13.448;2023-12-07T02:33:17;101368.50;;;-1.53;100.00
29433;BME280;16405;53.964;13.448;2023-12-07T02:35:43;101366.81;;;-1.51;100.00
29433;BME280;16405;53.964;13.448;2023-12-07T02:38:14;101370.28;;;-1.47;100.00
29433;BME280;16405;53.964;13.448;2023-12-07T02:40:42;101369.38;;;-1.49;100.00
29433;BME280;16405;53.964;13.448;2023-12-07T02:43:10;101368.53;;;-1.50;100.00
29433;BME280;16405;53.964;13.448;2023-12-07T02:45:44;101365.88;;;-1.54;100.00
29433;BME280;16405;53.964;13.448;2023-12-07T02:48:10;101365.03;;;-1.55;100.00
29433;BME280;16405;53.964;13.448;2023-12-07T02:50:36;101371.06;;;-1.53;100.00
29433;BME280;16405;53.964;13.448;2023-12-07T02:53:02;101365.03;;;-1.52;100.00
29433;BME280;16405;53.964;13.448;2023-12-07T02:55:28;101368.47;;;-1.54;100.00
29433;BME280;16405;53.964;13.448;2023-12-07T02:58:03;101366.75;;;-1.54;100.00
29433;BME280;16405;53.964;13.448;2023-12-07T03:00:29;101358.16;;;-1.53;100.00
29433;BME280;16405;53.964;13.448;2023-12-07T03:02:56;101374.53;;;-1.49;100.00
29433;BME280;16405;53.964;13.448;2023-12-07T03:05:30;101366.00;;;-1.47;100.00
29433;BME280;16405;53.964;13.448;2023-12-07T03:07:58;101375.47;;;-1.46;100.00
29433;BME280;16405;53.964;13.448;2023-12-07T03:10:24;101376.34;;;-1.43;100.00
29433;BME280;16405;53.964;13.448;2023-12-07T03:12:53;101379.81;;;-1.43;100.00
29433;BME280;16405;53.964;13.448;2023-12-07T03:15:19;101375.50;;;-1.44;100.00
29433;BME280;16405;53.964;13.448;2023-12-07T03:17:44;101375.53;;;-1.42;100.00
29433;BME280;16405;53.964;13.448;2023-12-07T03:20:11;101376.38;;;-1.42;100.00
29433;BME280;16405;53.964;13.448;2023-12-07T03:22:37;101382.38;;;-1.43;100.00
29433;BME280;16405;53.964;13.448;2023-12-07T03:25:03;101374.63;;;-1.45;100.00
29433;BME280;16405;53.964;13.448;2023-12-07T03:27:38;101381.53;;;-1.43;100.00
29433;BME280;16405;53.964;13.448;2023-12-07T03:30:05;101392.75;;;-1.41;100.00
29433;BME280;16405;53.964;13.448;2023-12-07T03:32:31;101389.28;;;-1.40;100.00
29433;BME280;16405;53.964;13.448;2023-12-07T03:34:56;101395.34;;;-1.40;100.00
29433;BME280;16405;53.964;13.448;2023-12-07T03:37:22;101391.91;;;-1.39;100.00
29433;BME280;16405;53.964;13.448;2023-12-07T03:39:50;101398.81;;;-1.36;100.00
29433;BME280;16405;53.964;13.448;2023-12-07T03:42:17;101399.72;;;-1.34;100.00
29433;BME280;16405;53.964;13.448;2023-12-07T03:44:45;101403.19;;;-1.32;100.00
29433;BME280;16405;53.964;13.448;2023-12-07T03:47:10;101398.88;;;-1.33;100.00
29433;BME280;16405;53.964;13.448;2023-12-07T03:49:38;101411.81;;;-1.33;100.00
29433;BME280;16405;53.964;13.448;2023-12-07T03:52:06;101410.09;;;-1.33;100.00
29433;BME280;16405;53.964;13.448;2023-12-07T03:54:32;101412.63;;;-1.34;100.00
29433;BME280;16405;53.964;13.448;2023-12-07T03:56:58;101404.03;;;-1.35;100.00
29433;BME280;16405;53.964;13.448;2023-12-07T03:59:24;101405.75;;;-1.35;100.00
29433;BME280;16405;53.964;13.448;2023-12-07T04:01:50;101408.25;;;-1.41;100.00
29433;BME280;16405;53.964;13.448;2023-12-07T04:04:16;101403.94;;;-1.42;100.00
29433;BME280;16405;53.964;13.448;2023-12-07T04:06:45;101409.03;;;-1.46;100.00
29433;BME280;16405;53.964;13.448;2023-12-07T04:09:11;101408.16;;;-1.48;100.00
29433;BME280;16405;53.964;13.448;2023-12-07T04:11:36;101409.00;;;-1.47;100.00
29433;BME280;16405;53.964;13.448;2023-12-07T04:14:02;101406.44;;;-1.47;100.00
29433;BME280;16405;53.964;13.448;2023-12-07T04:16:28;101409.94;;;-1.43;100.00
29433;BME280;16405;53.964;13.448;2023-12-07T04:18:58;101405.63;;;-1.45;100.00
29433;BME280;16405;53.964;13.448;2023-12-07T04:21:26;101403.91;;;-1.44;100.00
29433;BME280;16405;53.964;13.448;2023-12-07T04:23:52;101408.25;;;-1.41;100.00
29433;BME280;16405;53.964;13.448;2023-12-07T04:26:18;101403.06;;;-1.41;100.00
29433;BME280;16405;53.964;13.448;2023-12-07T04:28:44;101411.75;;;-1.38;100.00
29433;BME280;16405;53.964;13.448;2023-12-07T04:31:09;101407.47;;;-1.34;100.00
29433;BME280;16405;53.964;13.448;2023-12-07T04:33:35;101405.78;;;-1.34;100.00
29433;BME280;16405;53.964;13.448;2023-12-07T04:36:10;101404.06;;;-1.33;100.00
29433;BME280;16405;53.964;13.448;2023-12-07T04:38:36;101409.22;;;-1.33;100.00
29433;BME280;16405;53.964;13.448;2023-12-07T04:41:02;101416.97;;;-1.33;100.00
29433;BME280;16405;53.964;13.448;2023-12-07T04:43:33;101418.69;;;-1.32;100.00
29433;BME280;16405;53.964;13.448;2023-12-07T04:45:59;101423.00;;;-1.33;100.00
29433;BME280;16405;53.964;13.448;2023-12-07T04:48:27;101423.00;;;-1.33;100.00
29433;BME280;16405;53.964;13.448;2023-12-07T04:50:53;101427.31;;;-1.33;100.00
29433;BME280;16405;53.964;13.448;2023-12-07T04:53:19;101431.63;;;-1.34;100.00
29433;BME280;16405;53.964;13.448;2023-12-07T04:55:50;101429.03;;;-1.34;100.00
29433;BME280;16405;53.964;13.448;2023-12-07T04:58:16;101435.94;;;-1.31;100.00
29433;BME280;16405;53.964;13.448;2023-12-07T05:00:42;101431.63;;;-1.31;100.00
29433;BME280;16405;53.964;13.448;2023-12-07T05:03:08;101429.94;;;-1.29;100.00
29433;BME280;16405;53.964;13.448;2023-12-07T05:05:34;101430.84;;;-1.27;100.00
29433;BME280;16405;53.964;13.448;2023-12-07T05:08:07;101436.00;;;-1.27;100.00
29433;BME280;16405;53.964;13.448;2023-12-07T05:10:32;101432.56;;;-1.26;100.00
29433;BME280;16405;53.964;13.448;2023-12-07T05:12:58;101433.41;;;-1.27;100.00
29433;BME280;16405;53.964;13.448;2023-12-07T05:15:24;101435.16;;;-1.26;100.00
29433;BME280;16405;53.964;13.448;2023-12-07T05:17:52;101435.16;;;-1.24;100.00
29433;BME280;16405;53.964;13.448;2023-12-07T05:20:25;101440.34;;;-1.24;100.00
29433;BME280;16405;53.964;13.448;2023-12-07T05:22:53;101443.78;;;-1.24;100.00
29433;BME280;16405;53.964;13.448;2023-12-07T05:25:19;101448.13;;;-1.21;100.00
29433;BME280;16405;53.964;13.448;2023-12-07T05:27:44;101450.75;;;-1.18;100.00
29433;BME280;16405;53.964;13.448;2023-12-07T05:30:18;101449.06;;;-1.16;100.00
29433;BME280;16405;53.964;13.448;2023-12-07T05:32:44;101452.56;;;-1.12;100.00
29433;BME280;16405;53.964;13.448;2023-12-07T05:35:10;101454.25;;;-1.13;100.00
29433;BME280;16405;53.964;13.448;2023-12-07T05:37:35;101443.97;;;-1.11;100.00
29433;BME280;16405;53.964;13.448;2023-12-07T05:40:10;101446.56;;;-1.10;100.00
29433;BME280;16405;53.964;13.448;2023-12-07T05:42:38;101447.47;;;-1.08;100.00
29433;BME280;16405;53.964;13.448;2023-12-07T05:45:07;101456.09;;;-1.06;100.00
29433;BME280;16405;53.964;13.448;2023-12-07T05:47:36;101456.13;;;-1.02;100.00
29433;BME280;16405;53.964;13.448;2023-12-07T05:50:02;101445.75;;;-1.04;100.00
29433;BME280;16405;53.964;13.448;2023-12-07T05:52:29;101455.25;;;-1.05;100.00
29433;BME280;16405;53.964;13.448;2023-12-07T05:54:55;101460.41;;;-1.05;100.00
29433;BME280;16405;53.964;13.448;2023-12-07T05:57:23;101465.63;;;-1.01;100.00
29433;BME280;16405;53.964;13.448;2023-12-07T05:59:49;101463.00;;;-1.05;100.00
29433;BME280;16405;53.964;13.448;2023-12-07T06:02:15;101468.16;;;-1.05;100.00
29433;BME280;16405;53.964;13.448;2023-12-07T06:04:41;101474.22;;;-1.02;100.00
29433;BME280;16405;53.964;13.448;2023-12-07T06:07:07;101475.91;;;-1.05;100.00
29433;BME280;16405;53.964;13.448;2023-12-07T06:09:33;101475.00;;;-1.08;100.00
29433;BME280;16405;53.964;13.448;2023-12-07T06:12:00;101478.44;;;-1.09;100.00
29433;BME280;16405;53.964;13.448;2023-12-07T06:14:28;101478.47;;;-1.08;100.00
29433;BME280;16405;53.964;13.448;2023-12-07T06:16:59;101470.72;;;-1.08;100.00
29433;BME280;16405;53.964;13.448;2023-12-07T06:19:25;101479.38;;;-1.06;100.00
29433;BME280;16405;53.964;13.448;2023-12-07T06:21:51;101473.34;;;-1.05;100.00
29433;BME280;16405;53.964;13.448;2023-12-07T06:24:17;101477.63;;;-1.07;100.00
29433;BME280;16405;53.964;13.448;2023-12-07T06:26:45;101474.13;;;-1.09;100.00
29433;BME280;16405;53.964;13.448;2023-12-07T06:29:11;101475.88;;;-1.08;100.00
29433;BME280;16405;53.964;13.448;2023-12-07T06:31:49;101475.88;;;-1.08;100.00
29433;BME280;16405;53.964;13.448;2023-12-07T06:34:15;101478.47;;;-1.06;100.00
29433;BME280;16405;53.964;13.448;2023-12-07T06:36:42;101481.13;;;-1.03;100.00
29433;BME280;16405;53.964;13.448;2023-12-07T06:39:19;101482.88;;;-1.00;100.00
29433;BME280;16405;53.964;13.448;2023-12-07T06:41:47;101487.19;;;-0.99;100.00
29433;BME280;16405;53.964;13.448;2023-12-07T06:44:13;101484.63;;;-0.98;100.00
29433;BME280;16405;53.964;13.448;2023-12-07T06:46:53;101488.94;;;-0.98;100.00
29433;BME280;16405;53.964;13.448;2023-12-07T06:49:39;101486.38;;;-0.95;100.00
29433;BME280;16405;53.964;13.448;2023-12-07T06:52:07;101479.47;;;-0.96;100.00
29433;BME280;16405;53.964;13.448;2023-12-07T06:54:34;101484.69;;;-0.95;100.00
29433;BME280;16405;53.964;13.448;2023-12-07T06:57:00;101484.69;;;-0.92;100.00
29433;BME280;16405;53.964;13.448;2023-12-07T06:59:38;101495.06;;;-0.89;100.00
29433;BME280;16405;53.964;13.448;2023-12-07T07:02:04;101498.56;;;-0.85;100.00
29433;BME280;16405;53.964;13.448;2023-12-07T07:04:30;101490.88;;;-0.82;100.00
29433;BME280;16405;53.964;13.448;2023-12-07T07:06:58;101493.47;;;-0.80;100.00
29433;BME280;16405;53.964;13.448;2023-12-07T07:09:26;101499.50;;;-0.80;100.00
29433;BME280;16405;53.964;13.448;2023-12-07T07:11:52;101496.06;;;-0.79;100.00
29433;BME280;16405;53.964;13.448;2023-12-07T07:14:19;101500.44;;;-0.75;100.00
29433;BME280;16405;53.964;13.448;2023-12-07T07:16:44;101506.53;;;-0.71;100.00
29433;BME280;16405;53.964;13.448;2023-12-07T07:19:11;101506.50;;;-0.70;100.00
29433;BME280;16405;53.964;13.448;2023-12-07T07:21:36;101504.81;;;-0.68;100.00
29433;BME280;16405;53.964;13.448;2023-12-07T07:24:12;101505.72;;;-0.66;100.00
29433;BME280;16405;53.964;13.448;2023-12-07T07:26:38;101497.13;;;-0.65;100.00
29433;BME280;16405;53.964;13.448;2023-12-07T07:29:09;101502.31;;;-0.62;100.00
29433;BME280;16405;53.964;13.448;2023-12-07T07:31:35;101501.44;;;-0.60;100.00
29433;BME280;16405;53.964;13.448;2023-12-07T07:34:02;101497.13;;;-0.62;100.00
29433;BME280;16405;53.964;13.448;2023-12-07T07:36:28;101504.03;;;-0.60;100.00
29433;BME280;16405;53.964;13.448;2023-12-07T07:38:54;101499.75;;;-0.60;100.00
29433;BME280;16405;53.964;13.448;2023-12-07T07:41:22;101498.03;;;-0.59;100.00
29433;BME280;16405;53.964;13.448;2023-12-07T07:43:51;101502.34;;;-0.58;100.00
29433;BME280;16405;53.964;13.448;2023-12-07T07:46:17;101501.53;;;-0.56;100.00
29433;BME280;16405;53.964;13.448;2023-12-07T07:48:43;101498.94;;;-0.56;100.00
29433;BME280;16405;53.964;13.448;2023-12-07T07:51:09;101505.00;;;-0.54;100.00
29433;BME280;16405;53.964;13.448;2023-12-07T07:53:35;101511.91;;;-0.51;100.00
29433;BME280;16405;53.964;13.448;2023-12-07T07:56:06;101508.47;;;-0.50;100.00
29433;BME280;16405;53.964;13.448;2023-12-07T07:58:32;101518.84;;;-0.49;100.00
29433;BME280;16405;53.964;13.448;2023-12-07T08:00:58;101520.59;;;-0.46;100.00
29433;BME280;16405;53.964;13.448;2023-12-07T08:03:24;101520.63;;;-0.45;100.00
29433;BME280;16405;53.964;13.448;2023-12-07T08:05:49;101521.47;;;-0.44;100.00
29433;BME280;16405;53.964;13.448;2023-12-07T08:08:26;101520.69;;;-0.38;100.00
29433;BME280;16405;53.964;13.448;2023-12-07T08:10:52;101520.72;;;-0.35;100.00
29433;BME280;16405;53.964;13.448;2023-12-07T08:13:18;101514.69;;;-0.33;100.00
29433;BME280;16405;53.964;13.448;2023-12-07T08:15:46;101523.34;;;-0.31;100.00
29433;BME280;16405;53.964;13.448;2023-12-07T08:18:14;101525.09;;;-0.28;100.00
29433;BME280;16405;53.964;13.448;2023-12-07T08:20:40;101519.09;;;-0.26;100.00
29433;BME280;16405;53.964;13.448;2023-12-07T08:23:06;101521.72;;;-0.23;100.00
29433;BME280;16405;53.964;13.448;2023-12-07T08:25:31;101526.06;;;-0.20;100.00
29433;BME280;16405;53.964;13.448;2023-12-07T08:27:57;101529.53;;;-0.18;100.00
29433;BME280;16405;53.964;13.448;2023-12-07T08:30:23;101535.63;;;-0.14;100.00
29433;BME280;16405;53.964;13.448;2023-12-07T08:32:58;101536.53;;;-0.11;100.00
29433;BME280;16405;53.964;13.448;2023-12-07T08:35:24;101528.72;;;-0.12;100.00
29433;BME280;16405;53.964;13.448;2023-12-07T08:37:50;101534.78;;;-0.10;100.00
29433;BME280;16405;53.964;13.448;2023-12-07T08:40:23;101530.50;;;-0.08;100.00
29433;BME280;16405;53.964;13.448;2023-12-07T08:42:49;101540.03;;;-0.04;100.00
29433;BME280;16405;53.964;13.448;2023-12-07T08:45:15;101541.78;;;-0.02;100.00
29433;BME280;16405;53.964;13.448;2023-12-07T08:47:42;101537.50;;;0.01;100.00
29433;BME280;16405;53.964;13.448;2023-12-07T08:50:08;101547.03;;;0.05;100.00
29433;BME280;16405;53.964;13.448;2023-12-07T08:52:37;101541.88;;;0.08;100.00
29433;BME280;16405;53.964;13.448;2023-12-07T08:55:03;101540.19;;;0.13;100.00
29433;BME280;16405;53.964;13.448;2023-12-07T08:57:29;101535.91;;;0.16;100.00
29433;BME280;16405;53.964;13.448;2023-12-07T08:59:55;101545.47;;;0.22;100.00
29433;BME280;16405;53.964;13.448;2023-12-07T09:02:21;101547.22;;;0.25;100.00
29433;BME280;16405;53.964;13.448;2023-12-07T09:04:47;101547.22;;;0.26;100.00
29433;BME280;16405;53.964;13.448;2023-12-07T09:07:22;101543.81;;;0.30;100.00
29433;BME280;16405;53.964;13.448;2023-12-07T09:09:48;101554.19;;;0.33;100.00
29433;BME280;16405;53.964;13.448;2023-12-07T09:12:14;101547.31;;;0.35;100.00
29433;BME280;16405;53.964;13.448;2023-12-07T09:14:46;101544.75;;;0.40;100.00
29433;BME280;16405;53.964;13.448;2023-12-07T09:17:14;101552.53;;;0.42;100.00
29433;BME280;16405;53.964;13.448;2023-12-07T09:19:41;101551.69;;;0.44;100.00
29433;BME280;16405;53.964;13.448;2023-12-07T09:22:07;101561.19;;;0.45;100.00
29433;BME280;16405;53.964;13.448;2023-12-07T09:24:38;101563.84;;;0.50;100.00
29433;BME280;16405;53.964;13.448;2023-12-07T09:27:07;101563.00;;;0.54;100.00
29433;BME280;16405;53.964;13.448;2023-12-07T09:29:33;101565.66;;;0.58;100.00
29433;BME280;16405;53.964;13.448;2023-12-07T09:31:59;101569.13;;;0.60;100.00
29433;BME280;16405;53.964;13.448;2023-12-07T09:34:28;101575.16;;;0.61;100.00
29433;BME280;16405;53.964;13.448;2023-12-07T09:37:14;101579.44;;;0.57;100.00
29433;BME280;16405;53.964;13.448;2023-12-07T09:39:51;101583.75;;;0.55;100.00
29433;BME280;16405;53.964;13.448;2023-12-07T09:42:22;101569.03;;;0.51;100.00
29433;BME280;16405;53.964;13.448;2023-12-07T09:44:48;101577.66;;;0.52;100.00
29433;BME280;16405;53.964;13.448;2023-12-07T09:47:27;101570.72;;;0.49;100.00
29433;BME280;16405;53.964;13.448;2023-12-07T09:50:05;101573.31;;;0.49;100.00
29433;BME280;16405;53.964;13.448;2023-12-07T09:52:31;101576.78;;;0.48;100.00
29433;BME280;16405;53.964;13.448;2023-12-07T09:55:04;101579.31;;;0.45;100.00
29433;BME280;16405;53.964;13.448;2023-12-07T09:57:31;101575.91;;;0.46;100.00
29433;BME280;16405;53.964;13.448;2023-12-07T09:59:58;101582.81;;;0.46;100.00
29433;BME280;16405;53.964;13.448;2023-12-07T10:02:27;101581.09;;;0.46;100.00
29433;BME280;16405;53.964;13.448;2023-12-07T10:05:07;101579.38;;;0.48;100.00
29433;BME280;16405;53.964;13.448;2023-12-07T10:07:42;101578.50;;;0.46;100.00
29433;BME280;16405;53.964;13.448;2023-12-07T10:10:19;101578.50;;;0.48;100.00
29433;BME280;16405;53.964;13.448;2023-12-07T10:12:56;101577.63;;;0.47;100.00
29433;BME280;16405;53.964;13.448;2023-12-07T10:15:25;101574.16;;;0.47;100.00
29433;BME280;16405;53.964;13.448;2023-12-07T10:17:58;101582.84;;;0.50;100.00
29433;BME280;16405;53.964;13.448;2023-12-07T10:20:27;101577.66;;;0.50;100.00
29433;BME280;16405;53.964;13.448;2023-12-07T10:23:08;101582.03;;;0.54;100.00
29433;BME280;16405;53.964;13.448;2023-12-07T10:25:45;101579.44;;;0.54;100.00
29433;BME280;16405;53.964;13.448;2023-12-07T10:28:11;101572.50;;;0.55;100.00
29433;BME280;16405;53.964;13.448;2023-12-07T10:30:40;101572.50;;;0.55;100.00
29433;BME280;16405;53.964;13.448;2023-12-07T10:33:09;101573.41;;;0.57;100.00
29433;BME280;16405;53.964;13.448;2023-12-07T10:35:42;101579.44;;;0.57;100.00
29433;BME280;16405;53.964;13.448;2023-12-07T10:38:20;101569.97;;;0.59;100.00
29433;BME280;16405;53.964;13.448;2023-12-07T10:41:09;101569.97;;;0.61;100.00
29433;BME280;16405;53.964;13.448;2023-12-07T10:43:42;101567.38;;;0.61;100.00
29433;BME280;16405;53.964;13.448;2023-12-07T10:46:19;101569.97;;;0.59;100.00
29433;BME280;16405;53.964;13.448;2023-12-07T10:48:48;101569.97;;;0.59;100.00
29433;BME280;16405;53.964;13.448;2023-12-07T10:54:22;101560.47;;;0.61;100.00
29433;BME280;16405;53.964;13.448;2023-12-07T10:56:58;101560.47;;;0.61;100.00
29433;BME280;16405;53.964;13.448;2023-12-07T10:59:29;101563.94;;;0.60;100.00
29433;BME280;16405;53.964;13.448;2023-12-07T11:01:59;101567.38;;;0.59;100.00
29433;BME280;16405;53.964;13.448;2023-12-07T11:04:30;101560.47;;;0.58;100.00
29433;BME280;16405;53.964;13.448;2023-12-07T11:07:05;101558.75;;;0.60;100.00
29433;BME280;16405;53.964;13.448;2023-12-07T11:09:37;101567.38;;;0.61;100.00
29433;BME280;16405;53.964;13.448;2023-12-07T11:12:36;101566.53;;;0.60;100.00
29433;BME280;16405;53.964;13.448;2023-12-07T11:15:07;101561.31;;;0.59;100.00
29433;BME280;16405;53.964;13.448;2023-12-07T11:17:59;101550.09;;;0.58;100.00
29433;BME280;16405;53.964;13.448;2023-12-07T11:20:46;101559.59;;;0.59;100.00
29433;BME280;16405;53.964;13.448;2023-12-07T11:23:28;101563.06;;;0.58;100.00
29433;BME280;16405;53.964;13.448;2023-12-07T11:26:36;101567.38;;;0.59;100.00
29433;BME280;16405;53.964;13.448;2023-12-07T11:32:09;101557.91;;;0.66;100.00
29433;BME280;16405;53.964;13.448;2023-12-07T11:34:48;101550.16;;;0.71;100.00
29433;BME280;16405;53.964;13.448;2023-12-07T11:40:57;101561.47;;;0.79;100.00
29433;BME280;16405;53.964;13.448;2023-12-07T11:47:43;101554.59;;;0.82;100.00
29433;BME280;16405;53.964;13.448;2023-12-07T11:54:37;101556.34;;;0.90;100.00
29433;BME280;16405;53.964;13.448;2023-12-07T11:57:32;101561.50;;;0.88;100.00
29433;BME280;16405;53.964;13.448;2023-12-07T12:00:30;101562.41;;;0.90;100.00
29433;BME280;16405;53.964;13.448;2023-12-07T12:03:11;101566.72;;;0.90;100.00
29433;BME280;16405;53.964;13.448;2023-12-07T12:13:30;101583.13;;;0.86;100.00
29433;BME280;16405;53.964;13.448;2023-12-07T12:15:59;101571.84;;;0.82;100.00
29433;BME280;16405;53.964;13.448;2023-12-07T12:18:51;101572.72;;;0.84;100.00
29433;BME280;16405;53.964;13.448;2023-12-07T12:21:33;101572.75;;;0.87;100.00
29433;BME280;16405;53.964;13.448;2023-12-07T12:28:10;101562.44;;;0.93;100.00
29433;BME280;16405;53.964;13.448;2023-12-07T12:30:53;101565.06;;;0.99;100.00
29433;BME280;16405;53.964;13.448;2023-12-07T12:38:15;101559.91;;;1.07;100.00
29433;BME280;16405;53.964;13.448;2023-12-07T12:40:58;101562.53;;;1.09;100.00
29433;BME280;16405;53.964;13.448;2023-12-07T12:59:27;101581.13;;;2.27;100.00
29433;BME280;16405;53.964;13.448;2023-12-07T13:02:19;101573.28;;;2.04;100.00
29433;BME280;16405;53.964;13.448;2023-12-07T13:04:57;101575.84;;;1.92;100.00
29433;BME280;16405;53.964;13.448;2023-12-07T13:07:39;101570.63;;;1.79;100.00
29433;BME280;16405;53.964;13.448;2023-12-07T13:10:50;101564.50;;;1.65;100.00
29433;BME280;16405;53.964;13.448;2023-12-07T13:13:29;101565.38;;;1.62;100.00
29433;BME280;16405;53.964;13.448;2023-12-07T13:15:58;101565.38;;;1.58;100.00
29433;BME280;16405;53.964;13.448;2023-12-07T13:18:51;101565.34;;;1.59;100.00
29433;BME280;16405;53.964;13.448;2023-12-07T13:21:17;101563.63;;;1.58;100.00
29433;BME280;16405;53.964;13.448;2023-12-07T13:35:08;101554.06;;;1.50;100.00
29433;BME280;16405;53.964;13.448;2023-12-07T13:44:12;101550.59;;;1.48;100.00
29433;BME280;16405;53.964;13.448;2023-12-07T13:47:10;101558.38;;;1.44;100.00
29433;BME280;16405;53.964;13.448;2023-12-07T13:50:37;101553.16;;;1.41;100.00
29433;BME280;16405;53.964;13.448;2023-12-07T13:52:59;101559.25;;;1.40;100.00
29433;BME280;16405;53.964;13.448;2023-12-07T13:58:39;101561.81;;;1.37;100.00
29433;BME280;16405;53.964;13.448;2023-12-07T14:01:34;101564.41;;;1.34;100.00
29433;BME280;16405;53.964;13.448;2023-12-07T14:04:10;101577.34;;;1.31;100.00